Time;durP1;ratioP1;P1;durP2;ratioP2;P2;SDS_P1;SDS_P2;PMS_P1;PMS_P2;Temp;Humidity;BMP_temperature;BMP_pressure;BME280_temperature;BME280_humidity;BME280_pressure;Samples;Min_cycle;Max_cycle;Signal;HPM_P1;HPM_P2
2022/05/25 00:00:45;;;;;;;2.05;1.10;;;;;;;-144.47;50.36;53324.84;5000556;28;20117;-70
2022/05/25 00:03:11;;;;;;;1.75;1.02;;;;;;;-144.47;50.50;53253.34;5008026;28;20064;-69
2022/05/25 00:05:36;;;;;;;6.57;1.38;;;;;;;-144.47;50.41;53293.06;4991830;28;20034;-69
2022/05/25 00:08:03;;;;;;;8.27;1.13;;;;;;;-144.47;50.65;53308.97;5006801;28;20026;-69
2022/05/25 00:10:29;;;;;;;2.45;0.85;;;;;;;-144.47;50.63;53279.16;5009776;28;20022;-71
2022/05/25 00:12:54;;;;;;;3.75;1.15;;;;;;;-144.47;50.73;53277.19;5007867;28;20030;-70
2022/05/25 00:15:19;;;;;;;2.05;1.00;;;;;;;-144.47;50.73;53295.06;5003702;28;20049;-69
2022/05/25 00:17:45;;;;;;;3.80;1.20;;;;;;;-144.47;50.80;53303.00;5008901;28;20076;-68
2022/05/25 00:20:11;;;;;;;2.42;1.00;;;;;;;-144.47;51.16;53316.91;5002198;28;20064;-68
2022/05/25 00:22:49;;;;;;;3.30;1.02;;;;;;;-144.47;50.89;53283.13;4990850;28;20038;-67
2022/05/25 00:25:19;;;;;;;1.50;1.00;;;;;;;-144.47;50.90;53306.97;5009912;28;20416;-68
2022/05/25 00:27:45;;;;;;;1.98;0.93;;;;;;;-144.47;50.90;53287.13;5011097;28;20494;-68
2022/05/25 00:30:12;;;;;;;2.92;1.17;;;;;;;-144.47;51.05;53297.03;5011310;28;20026;-67
2022/05/25 00:32:40;;;;;;;9.23;1.60;;;;;;;-144.47;51.17;53299.03;5011503;28;20022;-69
2022/05/25 00:35:06;;;;;;;2.03;1.00;;;;;;;-144.47;51.41;53322.88;5007489;28;20071;-69
2022/05/25 00:37:31;;;;;;;20.33;3.03;;;;;;;-144.47;51.59;53334.78;5006592;28;20018;-70
2022/05/25 00:39:57;;;;;;;2.17;1.08;;;;;;;-144.47;51.41;53293.06;5012845;28;20080;-70
2022/05/25 00:42:22;;;;;;;2.45;1.15;;;;;;;-144.47;51.57;53328.81;5011724;28;20027;-69
2022/05/25 00:44:47;;;;;;;3.13;1.40;;;;;;;-144.47;51.85;53332.81;5011123;28;20026;-68
2022/05/25 00:47:16;;;;;;;1.65;1.00;;;;;;;-144.47;52.08;53328.81;4994480;28;20033;-67
2022/05/25 00:49:42;;;;;;;6.10;1.20;;;;;;;-144.47;52.29;53295.06;5014806;28;20029;-70
2022/05/25 00:52:11;;;;;;;2.75;1.17;;;;;;;-144.47;52.66;53332.81;5015833;28;20425;-70
2022/05/25 00:54:42;;;;;;;6.95;1.33;;;;;;;-144.47;52.86;53352.66;5007063;28;20428;-70
2022/05/25 01:00:06;;;;;;;3.08;1.05;;;;;;;-144.47;52.61;53281.16;5051170;22;20046;-66
2022/05/25 01:02:36;;;;;;;8.18;1.52;;;;;;;-144.47;52.69;53330.81;5030611;28;20488;-67
2022/05/25 01:05:02;;;;;;;4.13;1.27;;;;;;;-144.47;52.76;53342.72;5032115;28;20032;-68
2022/05/25 01:07:47;;;;;;;1.75;1.02;;;;;;;-144.47;52.89;53348.69;5032013;28;20029;-67
2022/05/25 01:10:36;;;;;;;4.32;1.70;;;;;;;-144.47;53.18;53308.97;5027164;28;20401;-68
2022/05/25 01:13:17;;;;;;;2.63;1.15;;;;;;;-144.47;53.35;53324.84;5028631;28;20045;-65
2022/05/25 01:15:54;;;;;;;1.95;1.10;;;;;;;-144.47;53.46;53306.97;5018595;28;20044;-66
2022/05/25 01:18:26;;;;;;;6.07;1.40;;;;;;;-144.47;53.53;53326.84;5026804;28;20022;-66
2022/05/25 01:21:17;;;;;;;1.73;1.00;;;;;;;-144.47;53.66;53283.13;5018917;28;20155;-68
2022/05/25 01:24:10;;;;;;;2.42;1.33;;;;;;;-144.47;53.80;53324.84;5016765;28;20456;-67
2022/05/25 01:27:13;;;;;;;3.67;1.17;;;;;;;-144.47;53.77;53275.19;5024959;28;20026;-68
2022/05/25 01:30:12;;;;;;;1.50;1.00;;;;;;;-144.47;53.51;53308.97;5026210;28;20100;-67
2022/05/25 01:33:03;;;;;;;2.17;1.10;;;;;;;-144.47;53.81;53322.88;5016918;28;20082;-68
2022/05/25 01:35:35;;;;;;;1.92;0.95;;;;;;;-144.47;53.74;53322.88;5020491;28;20052;-67
2022/05/25 01:38:14;;;;;;;7.18;1.52;;;;;;;-144.47;53.67;53356.63;5026215;28;20033;-67
2022/05/25 01:40:52;;;;;;;;;;;;;;;-144.47;53.96;53277.19;5028409;28;20110;-65
2022/05/25 01:43:23;;;;;;;2.73;1.00;;;;;;;-144.47;54.02;53320.88;5008764;28;19929;-66
2022/05/25 01:45:54;;;;;;;3.35;1.10;;;;;;;-144.47;53.97;53277.19;5020313;28;20017;-65
2022/05/25 01:48:22;;;;;;;3.83;1.85;;;;;;;-144.47;54.04;53324.84;5016819;28;20040;-65
2022/05/25 01:50:52;;;;;;;2.08;1.10;;;;;;;-144.47;54.08;53299.03;5023520;28;20018;-68
2022/05/25 01:53:21;;;;;;;3.55;1.30;;;;;;;-144.47;54.07;53295.06;5028171;28;20060;-67
2022/05/25 01:55:54;;;;;;;2.63;1.20;;;;;;;-144.47;54.13;53293.06;5025043;28;20104;-67
2022/05/25 01:58:21;;;;;;;4.07;1.65;;;;;;;-144.47;53.91;53301.03;5014297;28;20033;-68
2022/05/25 02:00:55;;;;;;;1.35;1.00;;;;;;;-144.47;53.59;53320.88;5016723;28;20444;-68
2022/05/25 02:06:55;;;;;;;6.00;1.23;;;;;;;-144.47;53.63;53291.09;5024102;28;20432;-67
2022/05/25 02:09:44;;;;;;;5.47;1.27;;;;;;;-144.47;53.67;53310.94;4987784;28;20522;-68
2022/05/25 02:12:28;;;;;;;8.75;1.42;;;;;;;-144.47;53.66;53352.66;5018073;28;20095;-67
2022/05/25 02:15:06;;;;;;;2.08;0.98;;;;;;;-144.47;53.64;53324.84;5019217;28;20159;-66
2022/05/25 02:17:36;;;;;;;4.43;1.30;;;;;;;-144.47;53.84;53312.94;5021341;28;20033;-65
2022/05/25 02:20:22;;;;;;;2.47;1.13;;;;;;;-144.47;53.73;53328.81;5017451;28;20056;-64
2022/05/25 02:22:54;;;;;;;4.93;1.42;;;;;;;-144.47;53.70;53287.13;5017097;28;20021;-67
2022/05/25 02:25:41;;;;;;;2.47;1.10;;;;;;;-144.47;53.71;53299.03;5023161;28;20030;-67
2022/05/25 02:28:15;;;;;;;2.10;0.93;;;;;;;-144.47;53.87;53312.94;5025384;28;20021;-67
2022/05/25 02:30:46;;;;;;;2.38;1.10;;;;;;;-144.47;53.63;53299.03;5020108;28;20021;-68
2022/05/25 02:33:21;;;;;;;13.13;1.40;;;;;;;-144.47;53.94;53328.81;5020402;28;20033;-66
2022/05/25 02:35:48;;;;;;;4.68;1.50;;;;;;;-144.47;53.91;53356.63;5011331;28;20136;-66
2022/05/25 02:38:14;;;;;;;5.95;1.58;;;;;;;-144.47;53.81;53283.13;5013691;28;20473;-65
2022/05/25 02:40:41;;;;;;;3.35;1.20;;;;;;;-144.47;54.00;53299.03;5026603;28;20544;-66
2022/05/25 02:43:07;;;;;;;5.60;1.30;;;;;;;-144.47;54.24;53328.81;5020327;28;20025;-66
2022/05/25 02:45:37;;;;;;;8.38;1.48;;;;;;;-144.47;54.16;53316.91;5026360;28;20219;-65
2022/05/25 02:48:03;;;;;;;2.15;1.40;;;;;;;-144.47;54.02;53322.88;5022552;28;20025;-66
2022/05/25 02:50:28;;;;;;;3.63;1.40;;;;;;;-144.47;54.10;53322.88;5026014;28;20028;-65
2022/05/25 02:52:53;;;;;;;2.42;1.20;;;;;;;-144.47;54.05;53287.13;5022552;28;20075;-67
2022/05/25 02:55:19;;;;;;;2.42;1.50;;;;;;;-144.47;54.12;53297.03;5026463;28;20025;-64
2022/05/25 02:57:44;;;;;;;4.57;1.35;;;;;;;-144.47;54.35;53299.03;5012157;28;20545;-65
2022/05/25 03:00:11;;;;;;;2.45;1.33;;;;;;;-144.47;54.21;53291.09;5011880;28;20026;-65
2022/05/25 03:02:37;;;;;;;6.30;1.67;;;;;;;-144.47;54.56;53332.81;5010270;28;20481;-67
2022/05/25 03:05:05;;;;;;;5.47;2.17;;;;;;;-144.47;54.90;53275.19;5029603;28;20026;-66
2022/05/25 03:07:30;;;;;;;10.82;1.60;;;;;;;-144.47;54.99;53318.91;5026713;28;20550;-66
2022/05/25 03:09:55;;;;;;;6.00;1.60;;;;;;;-144.47;55.22;53340.75;5009461;28;20028;-68
2022/05/25 03:12:21;;;;;;;3.13;1.58;;;;;;;-144.47;54.96;53322.88;5022570;28;20029;-64
2022/05/25 03:14:46;;;;;;;5.15;1.50;;;;;;;-144.47;54.97;53336.78;5010041;28;20037;-68
2022/05/25 03:17:14;;;;;;;8.27;1.80;;;;;;;-144.47;55.06;53305.00;5023239;28;20535;-65
2022/05/25 03:19:51;;;;;;;4.97;1.60;;;;;;;-144.47;55.20;53334.78;5022605;28;20026;-66
2022/05/25 03:22:16;;;;;;;3.88;1.60;;;;;;;-144.47;55.24;53293.06;5024352;28;20065;-68
2022/05/25 03:24:42;;;;;;;9.23;2.22;;;;;;;-144.47;55.58;53306.97;5027453;28;20054;-66
2022/05/25 03:27:07;;;;;;;4.70;2.13;;;;;;;-144.47;55.73;53291.09;5018428;28;20046;-67
2022/05/25 03:29:33;;;;;;;3.95;1.85;;;;;;;-144.47;55.70;53308.97;5012682;28;20358;-65
2022/05/25 03:31:59;;;;;;;5.18;1.80;;;;;;;-144.47;55.70;53293.06;5014702;28;20388;-67
2022/05/25 03:34:24;;;;;;;3.15;1.85;;;;;;;-144.47;55.62;53316.91;5023554;28;20079;-67
2022/05/25 03:36:53;;;;;;;8.63;2.05;;;;;;;-144.47;55.80;53344.72;5014275;28;20384;-65
2022/05/25 03:39:18;;;;;;;4.07;1.88;;;;;;;-144.47;56.09;53328.81;5023979;28;20021;-66
2022/05/25 03:41:43;;;;;;;5.78;2.67;;;;;;;-144.47;56.28;53281.16;5009281;28;20038;-66
2022/05/25 03:44:11;;;;;;;7.63;1.83;;;;;;;-144.47;56.14;53305.00;5021422;28;20055;-67
2022/05/25 03:46:37;;;;;;;3.20;1.85;;;;;;;-144.47;56.20;53340.75;5019284;28;20096;-68
2022/05/25 03:49:02;;;;;;;4.20;1.70;;;;;;;-144.47;56.16;53310.94;5023911;28;20025;-65
2022/05/25 03:51:27;;;;;;;7.30;1.58;;;;;;;-144.47;56.27;53334.78;5014672;28;20064;-66
2022/05/25 03:53:53;;;;;;;7.60;1.70;;;;;;;-144.47;56.42;53306.97;5024660;28;20029;-66
2022/05/25 03:56:18;;;;;;;4.93;1.90;;;;;;;-144.47;56.47;53310.94;5024874;28;20558;-68
2022/05/25 03:58:43;;;;;;;5.03;1.65;;;;;;;-144.47;56.54;53340.75;5014279;28;20030;-66
2022/05/25 04:01:09;;;;;;;6.18;1.75;;;;;;;-144.47;56.39;53324.84;5027341;28;20025;-67
2022/05/25 04:03:35;;;;;;;8.50;2.33;;;;;;;-144.47;56.62;53305.00;5019078;28;20033;-69
2022/05/25 04:06:00;;;;;;;6.40;1.67;;;;;;;-144.47;56.36;53299.03;5027586;28;20034;-66
2022/05/25 04:08:25;;;;;;;5.28;1.55;;;;;;;-144.47;56.34;53316.91;5022545;28;20044;-68
2022/05/25 04:10:51;;;;;;;6.53;1.85;;;;;;;-144.47;56.47;53289.09;5010693;28;20493;-67
2022/05/25 04:13:16;;;;;;;7.72;1.85;;;;;;;-144.47;56.24;53314.91;5010313;28;20513;-68
2022/05/25 04:15:42;;;;;;;5.03;1.70;;;;;;;-144.47;56.40;53328.81;5012000;28;20470;-67
2022/05/25 04:18:07;;;;;;;3.75;1.58;;;;;;;-144.47;56.32;53332.81;5010005;28;20025;-68
2022/05/25 04:20:32;;;;;;;4.90;1.65;;;;;;;-144.47;56.11;53326.84;5011504;28;20238;-68
2022/05/25 04:22:58;;;;;;;4.22;1.80;;;;;;;-144.47;56.60;53310.94;5012575;28;20022;-67
2022/05/25 04:25:25;;;;;;;13.70;2.58;;;;;;;-144.47;56.34;53308.97;5011833;28;20096;-68
2022/05/25 04:27:52;;;;;;;7.47;2.10;;;;;;;-144.47;56.42;53368.56;5011659;28;20034;-72
2022/05/25 04:30:24;;;;;;;3.80;1.88;;;;;;;-144.47;56.44;53308.97;5013179;28;20032;-68
2022/05/25 04:32:49;;;;;;;3.13;1.95;;;;;;;-144.47;56.30;53330.81;5013241;28;20443;-66
2022/05/25 04:35:16;;;;;;;6.00;1.80;;;;;;;-144.47;56.24;53306.97;5011462;28;20037;-69
2022/05/25 04:37:53;;;;;;;7.88;1.80;;;;;;;-144.47;56.04;53356.63;5011596;28;20026;-67
2022/05/25 04:40:25;;;;;;;7.03;2.58;;;;;;;-144.47;55.75;53368.56;5012848;28;20113;-66
2022/05/25 04:42:51;;;;;;;3.25;1.55;;;;;;;-144.47;55.77;53303.00;5021240;28;20029;-67
2022/05/25 04:45:18;;;;;;;3.20;1.75;;;;;;;-144.47;55.52;53267.25;5012289;28;20044;-68
2022/05/25 04:47:43;;;;;;;7.05;1.90;;;;;;;-144.47;55.57;53338.75;5010691;28;20017;-66
2022/05/25 04:50:11;;;;;;;5.88;1.83;;;;;;;-144.47;55.49;53314.91;5003716;28;20417;-64
2022/05/25 04:52:37;;;;;;;3.97;1.75;;;;;;;-144.47;55.69;53318.91;5013230;28;20035;-66
2022/05/25 04:55:07;;;;;;;2.97;1.73;;;;;;;-144.47;55.55;53305.00;5020613;28;20030;-67
2022/05/25 04:57:33;;;;;;;7.32;2.22;;;;;;;-144.47;55.35;53320.88;5016573;28;20057;-67
2022/05/25 05:00:08;;;;;;;8.65;2.45;;;;;;;-144.47;55.28;53332.81;5021760;28;20109;-72
2022/05/25 05:02:33;;;;;;;6.70;1.88;;;;;;;-144.47;54.99;53318.91;5025485;28;20033;-67
2022/05/25 05:04:59;;;;;;;4.93;1.58;;;;;;;-144.47;54.64;53318.91;5022442;28;20029;-67
2022/05/25 05:07:33;;;;;;;6.03;1.83;;;;;;;-144.47;54.32;53265.25;5016814;28;20025;-67
2022/05/25 05:10:01;;;;;;;12.75;2.17;;;;;;;-144.47;54.17;53297.03;5030056;28;20504;-68
2022/05/25 05:12:27;;;;;;;8.82;2.28;;;;;;;-144.47;53.65;53301.03;5016753;28;20026;-67
2022/05/25 05:14:53;;;;;;;2.83;1.42;;;;;;;-144.47;53.44;53269.22;5030216;28;20044;-67
2022/05/25 05:17:18;;;;;;;2.63;1.30;;;;;;;-144.47;52.81;53293.06;5029309;28;20477;-68
2022/05/25 05:19:44;;;;;;;3.95;1.50;;;;;;;-144.47;52.61;53314.91;5011503;28;20026;-67
2022/05/25 05:22:09;;;;;;;5.05;1.60;;;;;;;-144.47;52.62;53310.94;5007824;28;20026;-67
2022/05/25 05:24:34;;;;;;;8.50;2.58;;;;;;;-144.47;52.60;53308.97;5011930;28;20060;-65
2022/05/25 05:27:00;;;;;;;8.30;1.30;;;;;;;-144.47;52.38;53322.88;5017701;28;20053;-68
2022/05/25 05:29:29;;;;;;;5.03;1.80;;;;;;;-144.47;52.54;53301.03;5014912;28;20021;-67
2022/05/25 05:31:55;;;;;;;5.68;1.70;;;;;;;-144.47;51.77;53277.19;5015391;28;20025;-66
2022/05/25 05:34:20;;;;;;;2.83;1.33;;;;;;;-144.47;52.28;53261.28;5024046;28;20029;-67
2022/05/25 05:36:54;;;;;;;9.82;1.95;;;;;;;-144.47;52.44;53297.03;5029119;28;20021;-67
2022/05/25 05:39:23;;;;;;;5.15;1.90;;;;;;;-144.47;52.18;53291.09;5017102;28;20033;-67
2022/05/25 05:42:05;;;;;;;;;;;;;;;-144.47;52.37;53259.31;5016978;28;20022;-65
2022/05/25 05:44:36;;;;;;;3.65;1.42;;;;;;;-144.47;52.16;53275.19;5023439;28;19910;-66
2022/05/25 05:47:05;;;;;;;4.78;1.83;;;;;;;-144.47;51.97;53316.91;5030029;28;20025;-67
2022/05/25 05:49:31;;;;;;;5.22;1.70;;;;;;;-144.47;52.16;53295.06;5011520;28;20271;-67
2022/05/25 05:51:56;;;;;;;7.88;1.75;;;;;;;-144.47;51.97;53326.84;5010598;28;20389;-66
2022/05/25 05:54:22;;;;;;;3.15;1.38;;;;;;;-144.47;52.83;53259.31;5009785;28;20057;-66
2022/05/25 05:56:47;;;;;;;3.25;1.50;;;;;;;-144.47;52.61;53267.25;5023764;28;20404;-66
2022/05/25 05:59:12;;;;;;;9.75;1.58;;;;;;;-144.47;51.98;53293.06;5016295;28;20033;-66
2022/05/25 06:01:38;;;;;;;5.68;1.60;;;;;;;-144.47;51.47;53305.00;5017602;28;20455;-68
2022/05/25 06:04:04;;;;;;;8.55;1.70;;;;;;;-144.47;51.04;53289.09;5030036;28;20056;-67
2022/05/25 06:06:29;;;;;;;7.13;1.92;;;;;;;-144.47;51.07;53297.03;5017053;28;20037;-67
2022/05/25 06:08:56;;;;;;;6.53;1.38;;;;;;;-144.47;50.79;53287.13;5010428;28;20407;-68
2022/05/25 06:11:22;;;;;;;6.55;1.60;;;;;;;-144.47;50.91;53299.03;5009778;28;20029;-66
2022/05/25 06:13:48;;;;;;;5.18;1.48;;;;;;;-144.47;51.25;53310.94;5008221;28;20140;-68
2022/05/25 06:21:41;;;;;;;3.65;1.27;;;;;;;-144.47;51.35;53277.19;5009195;28;20048;-68
2022/05/25 06:24:07;;;;;;;3.90;1.80;;;;;;;-144.47;51.26;53261.28;5025279;28;20025;-66
2022/05/25 06:26:32;;;;;;;7.22;1.73;;;;;;;-144.47;51.31;53291.09;5018464;28;20064;-67
2022/05/25 06:28:59;;;;;;;3.05;1.23;;;;;;;-144.47;51.02;53285.13;5022400;28;20216;-67
2022/05/25 06:31:25;;;;;;;6.50;1.77;;;;;;;-144.47;51.57;53277.19;5019333;28;20044;-66
2022/05/25 06:33:50;;;;;;;4.25;1.50;;;;;;;-144.47;50.50;53293.06;5012005;28;20239;-67
2022/05/25 06:36:42;;;;;;;6.47;1.75;;;;;;;-144.47;50.45;53259.31;5009380;28;20375;-67
2022/05/25 06:39:08;;;;;;;3.08;1.42;;;;;;;-144.47;50.26;53265.25;5008516;28;20073;-67
2022/05/25 06:41:34;;;;;;;6.45;1.50;;;;;;;-144.47;50.19;53267.25;5007119;28;20107;-68
2022/05/25 06:44:00;;;;;;;3.08;1.25;;;;;;;-144.47;50.23;53269.22;5001613;28;20029;-68
2022/05/25 06:46:26;;;;;;;10.98;3.25;;;;;;;-144.47;50.38;53277.19;5003521;28;20073;-66
2022/05/25 06:48:54;;;;;;;5.80;1.77;;;;;;;-144.47;50.19;53237.44;5000421;28;20061;-68
2022/05/25 06:51:24;;;;;;;2.47;1.45;;;;;;;-144.47;50.38;53301.03;5003105;28;20568;-66
2022/05/25 06:53:50;;;;;;;9.23;1.80;;;;;;;-144.47;50.30;53275.19;5005555;28;20060;-65
2022/05/25 06:56:16;;;;;;;7.18;1.95;;;;;;;-144.47;50.70;53259.31;5009569;28;20057;-68
2022/05/25 06:58:43;;;;;;;3.60;1.80;;;;;;;-144.47;50.59;53301.03;5040240;22;20041;-70
2022/05/25 07:01:08;;;;;;;7.18;1.60;;;;;;;-144.47;50.50;53291.09;5032501;28;20079;-68
2022/05/25 07:03:33;;;;;;;2.83;1.52;;;;;;;-144.47;50.44;53279.16;5032612;28;20034;-70
2022/05/25 07:06:03;;;;;;;3.38;1.63;;;;;;;-144.47;51.00;53291.09;5032791;28;20346;-70
2022/05/25 07:08:28;;;;;;;4.05;1.73;;;;;;;-144.47;50.20;53289.09;5031787;28;20437;-69
2022/05/25 07:10:53;;;;;;;4.28;1.83;;;;;;;-144.47;49.75;53259.31;5020411;28;20141;-70
2022/05/25 07:13:19;;;;;;;5.68;1.95;;;;;;;-144.47;49.70;53239.44;5016983;28;20040;-71
2022/05/25 07:15:44;;;;;;;4.85;1.60;;;;;;;-144.47;49.75;53283.13;5022824;28;20080;-71
2022/05/25 07:18:10;;;;;;;5.00;1.60;;;;;;;-144.47;49.37;53253.34;5029766;28;20013;-71
2022/05/25 07:20:36;;;;;;;12.18;1.80;;;;;;;-144.47;49.47;53279.16;5022094;28;20053;-71
2022/05/25 07:23:02;;;;;;;13.35;2.10;;;;;;;-144.47;49.38;53253.34;5016248;28;20072;-71
2022/05/25 07:25:28;;;;;;;9.95;2.03;;;;;;;-144.47;49.63;53263.28;5032527;28;20025;-69
2022/05/25 07:27:53;;;;;;;5.22;2.03;;;;;;;-144.47;49.84;53241.44;5017889;28;20049;-71
2022/05/25 07:30:19;;;;;;;4.80;1.50;;;;;;;-144.47;50.11;53267.25;5032576;28;20041;-72
2022/05/25 07:32:46;;;;;;;11.18;1.52;;;;;;;-144.47;49.45;53289.09;5031309;28;20025;-72
2022/05/25 07:35:14;;;;;;;6.25;1.83;;;;;;;-144.47;49.55;53289.09;5020473;28;20040;-71
2022/05/25 07:37:43;;;;;;;3.77;1.50;;;;;;;-144.47;49.53;53320.88;5014455;28;20026;-71
2022/05/25 07:40:13;;;;;;;;;;;;;;;-144.47;49.54;53275.19;5021422;28;20105;-70
2022/05/25 07:42:46;;;;;;;5.50;1.52;;;;;;;-144.47;49.69;53249.38;5014312;28;20395;-70
2022/05/25 07:45:11;;;;;;;6.10;2.10;;;;;;;-144.47;49.64;53299.03;5022256;28;20037;-71
2022/05/25 07:47:37;;;;;;;6.00;1.95;;;;;;;-144.47;48.85;53285.13;5024097;28;20049;-72
2022/05/25 07:50:04;;;;;;;7.20;1.50;;;;;;;-144.47;49.13;53314.91;5021798;28;20393;-71
2022/05/25 07:52:34;;;;;;;5.55;1.42;;;;;;;-144.47;48.71;53265.25;5023261;28;20029;-69
2022/05/25 07:55:01;;;;;;;8.43;1.73;;;;;;;-144.47;47.87;53273.22;5012442;28;20080;-70
2022/05/25 07:57:27;;;;;;;3.58;1.50;;;;;;;-144.47;48.09;53273.22;5025237;28;20022;-72
2022/05/25 07:59:52;;;;;;;13.48;3.13;;;;;;;-144.47;48.01;53243.41;5011231;28;20092;-70
2022/05/25 08:08:02;;;;;;;10.88;2.05;;;;;;;-144.47;47.00;53269.22;5018219;28;20029;-69
2022/05/25 08:10:28;;;;;;;7.78;1.92;;;;;;;-144.47;46.60;53263.28;5030171;28;20053;-69
2022/05/25 08:12:55;;;;;;;3.75;1.40;;;;;;;-144.47;47.41;53261.28;5032142;28;20061;-72
2022/05/25 08:15:22;;;;;;;7.25;2.50;;;;;;;-144.47;47.27;53285.13;5022106;28;20469;-69
2022/05/25 08:17:48;;;;;;;5.15;2.00;;;;;;;-144.47;47.72;53271.22;5014720;28;20022;-72
2022/05/25 08:20:14;;;;;;;7.07;2.03;;;;;;;-144.47;48.39;53257.31;5025123;28;20125;-71
2022/05/25 08:22:40;;;;;;;4.75;1.90;;;;;;;-144.47;48.79;53281.16;5018348;28;20404;-71
2022/05/25 08:25:07;;;;;;;17.85;3.50;;;;;;;-144.47;48.21;53283.13;5021226;28;20040;-72
2022/05/25 08:27:33;;;;;;;4.38;2.25;;;;;;;-144.47;48.77;53267.25;5024923;28;20083;-71
2022/05/25 08:29:59;;;;;;;10.15;2.45;;;;;;;-144.47;48.71;53279.16;5011269;28;20029;-72
2022/05/25 08:32:24;;;;;;;9.73;2.58;;;;;;;-144.47;48.72;53267.25;5024575;28;20040;-71
2022/05/25 08:34:50;;;;;;;7.97;2.47;;;;;;;-144.47;48.65;53265.25;5024822;28;20034;-69
2022/05/25 08:37:15;;;;;;;8.25;2.97;;;;;;;-144.47;48.83;53265.25;5017696;28;20045;-70
2022/05/25 08:39:41;;;;;;;6.60;2.20;;;;;;;-144.47;47.96;53277.19;5031493;28;20036;-70
2022/05/25 08:42:12;;;;;;;6.65;3.33;;;;;;;-144.47;48.15;53269.22;5008407;28;20495;-69
2022/05/25 08:44:41;;;;;;;7.40;2.58;;;;;;;-144.47;47.99;53271.22;5023324;28;20032;-70
2022/05/25 08:47:09;;;;;;;13.05;2.20;;;;;;;-144.47;48.24;53295.06;5014369;28;20112;-68
2022/05/25 08:49:36;;;;;;;5.78;2.17;;;;;;;-144.47;47.70;53271.22;5014136;28;20056;-71
2022/05/25 08:52:04;;;;;;;8.02;2.40;;;;;;;-144.47;47.25;53243.41;5022574;28;20037;-70
2022/05/25 08:54:31;;;;;;;5.53;1.95;;;;;;;-144.47;46.90;53239.44;5012919;28;20172;-71
2022/05/25 08:57:02;;;;;;;5.70;2.00;;;;;;;-144.47;46.25;53265.25;5022517;28;20026;-70
2022/05/25 08:59:35;;;;;;;5.43;2.08;;;;;;;-144.47;46.33;53277.19;5026165;28;20511;-71
2022/05/25 09:02:20;;;;;;;5.55;2.28;;;;;;;-144.47;45.77;53267.25;5030384;28;20041;-69
2022/05/25 09:04:51;;;;;;;3.88;1.30;;;;;;;-144.47;44.54;53301.03;5025452;28;20033;-70
2022/05/25 09:07:40;;;;;;;4.40;1.40;;;;;;;-144.47;44.06;53295.06;5024524;28;20068;-70
2022/05/25 09:10:06;;;;;;;7.53;2.03;;;;;;;-144.47;43.68;53259.31;5010677;28;20022;-69
2022/05/25 09:12:39;;;;;;;10.80;1.80;;;;;;;-144.47;43.89;53247.38;5012589;28;20025;-72
2022/05/25 09:15:23;;;;;;;8.35;1.30;;;;;;;-144.47;43.04;53239.44;5020170;28;20033;-70
2022/05/25 09:17:56;;;;;;;5.40;1.80;;;;;;;-144.47;41.91;53225.53;5031081;28;20148;-71
2022/05/25 09:20:25;;;;;;;3.53;1.17;;;;;;;-144.47;41.94;53253.34;5015876;28;20049;-70
2022/05/25 09:22:52;;;;;;;4.78;1.65;;;;;;;-144.47;40.72;53227.53;5030182;28;20029;-70
2022/05/25 09:25:18;;;;;;;6.35;1.30;;;;;;;-144.47;41.08;53241.44;5015741;28;20030;-71
2022/05/25 09:27:55;;;;;;;3.92;1.30;;;;;;;-144.47;41.57;53263.28;5019681;28;20028;-72
2022/05/25 09:30:21;;;;;;;7.30;1.83;;;;;;;-144.47;40.77;53281.16;5029838;28;20046;-71
2022/05/25 09:32:55;;;;;;;5.85;1.88;;;;;;;-144.47;41.12;53253.34;5030571;28;20057;-69
2022/05/25 09:35:36;;;;;;;6.20;1.65;;;;;;;-144.47;40.93;53241.44;5010177;28;20060;-70
2022/05/25 09:38:41;;;;;;;2.80;1.52;;;;;;;-144.47;40.73;53237.44;5018696;28;20021;-69
2022/05/25 09:41:09;;;;;;;4.40;1.92;;;;;;;-144.47;40.82;53237.44;4961051;28;20026;-69
2022/05/25 09:43:34;;;;;;;5.65;2.10;;;;;;;-144.47;40.68;53259.31;5015837;28;20046;-69
2022/05/25 09:46:08;;;;;;;7.55;1.70;;;;;;;-144.47;40.49;53259.31;5023755;28;20038;-70
2022/05/25 09:48:46;;;;;;;5.95;1.90;;;;;;;-144.47;39.99;53247.38;5014882;28;20026;-69
2022/05/25 09:51:43;;;;;;;5.97;1.90;;;;;;;-144.47;39.58;53229.50;5012888;28;20080;-69
2022/05/25 09:54:14;;;;;;;9.43;1.90;;;;;;;-144.47;39.34;53213.63;5029815;28;20036;-70
2022/05/25 09:56:45;;;;;;;18.88;2.10;;;;;;;-144.47;39.49;53229.50;5023207;28;20090;-71
2022/05/25 09:59:20;;;;;;;7.15;2.00;;;;;;;-144.47;39.29;53219.56;5009959;28;20100;-72
2022/05/25 10:01:48;;;;;;;7.20;2.20;;;;;;;-144.47;39.41;53205.66;5020707;28;20029;-71
2022/05/25 10:04:32;;;;;;;3.67;1.85;;;;;;;-144.47;39.29;53213.63;5011722;28;20095;-72
2022/05/25 10:06:58;;;;;;;5.55;1.40;;;;;;;-144.47;38.17;53285.13;5018209;28;20489;-70
2022/05/25 10:09:28;;;;;;;7.20;1.65;;;;;;;-144.47;38.75;53251.34;5026919;28;20036;-70
2022/05/25 10:11:57;;;;;;;5.45;1.88;;;;;;;-144.47;38.13;53195.75;5018253;28;20022;-70
2022/05/25 10:14:39;;;;;;;7.80;1.40;;;;;;;-144.47;37.79;53209.66;5009552;28;20333;-71
2022/05/25 10:17:29;;;;;;;4.88;1.50;;;;;;;-144.47;38.61;53213.63;5016788;28;20236;-70
2022/05/25 10:19:57;;;;;;;6.35;1.85;;;;;;;-144.47;38.84;53193.75;5028859;28;20213;-71
2022/05/25 10:22:41;;;;;;;4.10;1.73;;;;;;;-144.47;38.57;53161.97;5022713;28;20037;-71
2022/05/25 10:25:12;;;;;;;8.40;1.80;;;;;;;-144.47;38.77;53201.69;5010928;28;20026;-70
2022/05/25 10:27:43;;;;;;;6.60;1.40;;;;;;;-144.47;38.90;53197.72;5009761;28;20026;-71
2022/05/25 10:39:26;;;;;;;4.82;1.30;;;;;;;-144.47;37.52;53227.53;5029317;28;20037;-72
2022/05/25 10:42:17;;;;;;;2.67;1.30;;;;;;;-144.47;37.21;53179.84;5028762;28;20436;-71
2022/05/25 10:44:47;;;;;;;3.13;1.27;;;;;;;-144.47;37.52;53207.66;5019096;28;20033;-69
2022/05/25 10:47:36;;;;;;;3.47;1.20;;;;;;;-144.47;37.80;53225.53;5010552;28;20113;-70
2022/05/25 10:50:07;;;;;;;11.15;1.27;;;;;;;-144.47;36.79;53213.63;5013966;28;20021;-70
2022/05/25 10:52:37;;;;;;;7.03;1.33;;;;;;;-144.47;36.20;53161.97;5022360;28;20028;-71
2022/05/25 10:55:05;;;;;;;5.20;1.35;;;;;;;-144.47;35.85;53179.84;5021880;28;20564;-69
2022/05/25 10:57:46;;;;;;;4.07;1.15;;;;;;;-144.47;36.01;53158.00;5022214;28;20026;-71
2022/05/25 11:00:25;;;;;;;10.13;1.00;;;;;;;-144.47;36.71;53185.81;5017685;28;20040;-70
2022/05/25 11:03:29;;;;;;;6.75;1.02;;;;;;;-144.47;35.51;53165.94;5016494;28;20033;-68
2022/05/25 11:05:57;;;;;;;4.35;1.42;;;;;;;-144.47;34.63;53169.91;5012984;28;20033;-71
2022/05/25 11:08:49;;;;;;;2.53;1.00;;;;;;;-144.47;35.14;53191.78;5007541;28;20280;-69
2022/05/25 11:11:23;;;;;;;7.50;1.55;;;;;;;-144.47;34.89;53183.81;5008472;28;20037;-68
2022/05/25 11:14:33;;;;;;;4.35;1.52;;;;;;;-144.47;34.87;53175.88;5023443;28;20036;-70
2022/05/25 11:17:39;;;;;;;9.35;1.58;;;;;;;-144.47;35.62;53187.78;5029130;28;20820;-71
2022/05/25 11:20:16;;;;;;;4.88;1.00;;;;;;;-144.47;35.07;53189.78;5014654;28;20045;-70
2022/05/25 11:23:09;;;;;;;4.93;1.02;;;;;;;-144.47;34.98;53165.94;5021146;28;20243;-69
2022/05/25 11:25:52;;;;;;;4.63;1.10;;;;;;;-144.47;34.68;53144.09;5026302;28;20024;-72
2022/05/25 11:28:33;;;;;;;5.47;1.00;;;;;;;-144.47;35.22;53197.72;5013912;28;20045;-70
2022/05/25 11:31:25;;;;;;;3.38;1.10;;;;;;;-144.47;35.84;53154.03;5017296;28;20045;-72
2022/05/25 11:34:07;;;;;;;9.05;1.40;;;;;;;-144.47;35.88;53223.56;5028346;28;20080;-69
2022/05/25 11:36:42;;;;;;;4.40;0.93;;;;;;;-144.47;36.12;53205.66;5011734;28;20068;-72
2022/05/25 11:39:24;;;;;;;7.53;1.30;;;;;;;-144.47;36.11;53193.75;5011088;28;20030;-70
2022/05/25 11:42:11;;;;;;;5.38;1.00;;;;;;;-144.47;36.23;53205.66;5021641;28;20079;-71
2022/05/25 11:44:58;;;;;;;1.55;0.82;;;;;;;-144.47;35.68;53181.84;5029484;28;20026;-71
2022/05/25 11:47:47;;;;;;;3.22;0.90;;;;;;;-144.47;35.52;53165.94;5017901;28;20434;-70
2022/05/25 11:50:38;;;;;;;5.47;1.20;;;;;;;-144.47;34.78;53187.78;5024853;28;20063;-71
2022/05/25 11:53:45;;;;;;;9.07;1.35;;;;;;;-144.47;35.19;53185.81;5032145;28;20053;-70
2022/05/25 11:56:13;;;;;;;4.32;1.10;;;;;;;-144.47;34.86;53191.78;5031826;28;20028;-69
2022/05/25 11:59:13;;;;;;;2.47;1.00;;;;;;;-144.47;34.82;53169.91;5031497;28;20030;-71
2022/05/25 12:01:57;;;;;;;6.40;1.40;;;;;;;-144.47;33.99;53167.94;5025220;28;20080;-68